Time;durP1;ratioP1;P1;durP2;ratioP2;P2;SDS_P1;SDS_P2;PMS_P1;PMS_P2;Temp;Humidity;BMP_temperature;BMP_pressure;BME280_temperature;BME280_humidity;BME280_pressure;Samples;Min_cycle;Max_cycle;Signal;HPM_P1;HPM_P2
2022/12/07 00:00:43;;;;;;;38.17;17.50;;;;;;;7.45;100.00;100721.50;5049566;28;20041;-73
2022/12/07 00:03:08;;;;;;;42.90;19.25;;;;;;;7.42;100.00;100726.44;5052131;28;20071;-75
2022/12/07 00:05:34;;;;;;;43.05;20.27;;;;;;;7.36;100.00;100714.97;5060230;28;20052;-75
2022/12/07 00:07:59;;;;;;;44.72;20.70;;;;;;;7.15;100.00;100709.56;5051256;28;20054;-75
2022/12/07 00:10:24;;;;;;;47.17;20.10;;;;;;;7.03;100.00;100707.19;5050702;28;20036;-75
2022/12/07 00:12:50;;;;;;;50.03;21.77;;;;;;;7.13;100.00;100733.44;5051104;28;20076;-75
2022/12/07 00:15:15;;;;;;;54.92;20.00;;;;;;;7.19;100.00;100734.59;5046363;28;20036;-72
2022/12/07 00:17:41;;;;;;;52.47;20.17;;;;;;;7.26;100.00;100729.91;5050631;28;20029;-72
2022/12/07 00:20:07;;;;;;;45.13;19.05;;;;;;;7.31;100.00;100726.69;5050734;28;20036;-73
2022/12/07 00:22:32;;;;;;;47.38;19.17;;;;;;;7.11;100.00;100699.09;5050908;28;20033;-72
2022/12/07 00:24:58;;;;;;;41.80;19.05;;;;;;;7.13;100.00;100718.06;5050728;28;20052;-75
2022/12/07 00:27:23;;;;;;;38.28;18.70;;;;;;;7.20;100.00;100727.00;5050767;28;20021;-74
2022/12/07 00:29:49;;;;;;;41.85;17.85;;;;;;;7.06;100.00;100700.53;5053582;28;20498;-74
2022/12/07 00:32:15;;;;;;;44.13;18.92;;;;;;;7.25;100.00;100720.41;5051597;28;20033;-75
2022/12/07 00:34:40;;;;;;;38.63;18.83;;;;;;;7.32;100.00;100731.03;5051448;28;20083;-75
2022/12/07 00:37:06;;;;;;;39.60;18.33;;;;;;;7.37;100.00;100727.00;5051156;28;20477;-74
2022/12/07 00:39:31;;;;;;;45.47;18.95;;;;;;;7.30;100.00;100705.22;5051202;28;20025;-74
2022/12/07 00:41:56;;;;;;;55.78;28.20;;;;;;;7.50;100.00;100716.59;5051264;28;20116;-74
2022/12/07 00:44:22;;;;;;;46.00;23.08;;;;;;;7.55;100.00;100724.53;5051062;28;20040;-74
2022/12/07 00:46:47;;;;;;;52.53;27.48;;;;;;;7.42;100.00;100721.31;5050987;28;20120;-74
2022/12/07 00:49:13;;;;;;;46.90;19.90;;;;;;;7.01;100.00;100722.50;5051072;28;20462;-74
2022/12/07 00:51:38;;;;;;;48.83;19.42;;;;;;;6.97;100.00;100726.59;5049957;28;20027;-74
2022/12/07 00:54:03;;;;;;;42.83;18.77;;;;;;;6.94;100.00;100722.97;5051211;28;20029;-74
2022/12/07 00:56:29;;;;;;;43.05;17.98;;;;;;;7.05;100.00;100721.00;5050998;28;20411;-74
2022/12/07 00:58:56;;;;;;;42.70;18.45;;;;;;;7.04;100.00;100720.13;5050766;28;20729;-74
2022/12/07 01:01:22;;;;;;;44.72;18.20;;;;;;;7.02;100.00;100700.31;5050665;28;20045;-74
2022/12/07 01:03:48;;;;;;;41.85;18.13;;;;;;;7.19;100.00;100702.09;5050921;28;20025;-74
2022/12/07 01:06:15;;;;;;;37.78;17.23;;;;;;;7.24;100.00;100700.66;5050883;28;20486;-74
2022/12/07 01:08:41;;;;;;;34.38;16.08;;;;;;;7.35;100.00;100708.97;5050771;28;20060;-74
2022/12/07 01:11:09;;;;;;;34.25;16.17;;;;;;;7.32;100.00;100697.63;5050423;28;20487;-74
2022/12/07 01:13:35;;;;;;;36.97;16.20;;;;;;;7.20;100.00;100698.75;5034976;28;20037;-74
2022/12/07 01:16:03;;;;;;;33.72;16.80;;;;;;;7.23;100.00;100696.31;5030817;28;20049;-74
2022/12/07 01:18:31;;;;;;;37.10;17.33;;;;;;;7.11;100.00;100682.81;5030958;28;20025;-74
2022/12/07 01:20:58;;;;;;;36.92;16.92;;;;;;;7.22;100.00;100697.13;5031084;28;20045;-74
2022/12/07 01:23:24;;;;;;;36.35;17.70;;;;;;;7.15;100.00;100695.00;5030705;28;20029;-74
2022/12/07 01:26:01;;;;;;;38.10;17.90;;;;;;;7.00;100.00;100678.78;5030457;28;20044;-74
2022/12/07 01:28:26;;;;;;;42.10;18.52;;;;;;;6.86;100.00;100670.34;5030626;28;20033;-73
2022/12/07 01:31:07;;;;;;;43.22;19.00;;;;;;;6.98;100.00;100681.28;5030695;28;20075;-74
2022/12/07 01:33:35;;;;;;;43.20;18.27;;;;;;;6.97;100.00;100685.50;5030448;28;20475;-74
2022/12/07 01:36:05;;;;;;;48.90;19.90;;;;;;;6.90;100.00;100652.63;5030582;28;20033;-74
2022/12/07 01:38:31;;;;;;;45.08;18.85;;;;;;;7.19;100.00;100686.69;5030340;28;20112;-74
2022/12/07 01:40:57;;;;;;;43.55;19.55;;;;;;;7.24;100.00;100684.34;5030254;28;20041;-74
2022/12/07 01:43:25;;;;;;;48.33;20.05;;;;;;;7.31;100.00;100694.16;5030632;28;20025;-74
2022/12/07 01:45:51;;;;;;;41.72;17.17;;;;;;;7.31;100.00;100675.31;5030605;28;20021;-74
2022/12/07 01:48:21;;;;;;;42.33;18.55;;;;;;;7.36;100.00;100679.00;5011886;28;20053;-74
2022/12/07 01:50:50;;;;;;;42.35;19.77;;;;;;;7.33;100.00;100674.59;5030602;28;20395;-74
2022/12/07 01:56:42;;;;;;;44.45;18.55;;;;;;;7.17;100.00;100677.16;5245543;23;20063;-74
2022/12/07 01:59:08;;;;;;;36.80;18.80;;;;;;;7.12;100.00;100669.19;5070326;28;20787;-73
2022/12/07 02:01:33;;;;;;;43.92;19.35;;;;;;;7.16;100.00;100672.81;5070618;28;20032;-73
2022/12/07 02:03:59;;;;;;;38.83;18.77;;;;;;;7.13;100.00;100671.84;5070521;28;20104;-73
2022/12/07 02:06:25;;;;;;;37.17;17.15;;;;;;;7.16;100.00;100667.69;5070229;28;20021;-73
2022/12/07 02:08:52;;;;;;;42.88;17.65;;;;;;;7.23;100.00;100667.22;5070400;28;20406;-74
2022/12/07 02:11:18;;;;;;;35.67;16.77;;;;;;;7.02;100.00;100621.59;5070330;28;20513;-74
2022/12/07 02:13:47;;;;;;;43.20;17.73;;;;;;;7.26;100.00;100659.66;5070611;28;20032;-74
2022/12/07 02:16:43;;;;;;;42.92;17.73;;;;;;;7.27;100.00;100666.56;5070442;28;20031;-73
2022/12/07 02:19:42;;;;;;;38.08;16.55;;;;;;;7.31;100.00;100663.34;5070445;28;20028;-73
2022/12/07 02:22:28;;;;;;;43.03;18.45;;;;;;;7.24;100.00;100663.81;5070826;28;20136;-73
2022/12/07 02:25:29;;;;;;;36.72;17.05;;;;;;;7.20;100.00;100652.53;5074272;28;20047;-73
2022/12/07 02:28:30;;;;;;;37.75;17.17;;;;;;;7.10;100.00;100655.38;5074194;28;20063;-73
2022/12/07 02:31:01;;;;;;;40.63;16.67;;;;;;;7.13;100.00;100645.28;5031594;28;20049;-73
2022/12/07 02:33:36;;;;;;;38.88;19.15;;;;;;;7.22;100.00;100639.75;5031749;28;20029;-73
2022/12/07 02:36:10;;;;;;;44.65;20.35;;;;;;;7.30;100.00;100643.59;5031575;28;20092;-73
2022/12/07 02:38:55;;;;;;;39.03;19.55;;;;;;;7.36;100.00;100638.78;5031686;28;20124;-73
2022/12/07 02:41:33;;;;;;;43.53;17.35;;;;;;;7.43;100.00;100632.31;5031372;28;20056;-73
2022/12/07 02:44:02;;;;;;;40.70;17.88;;;;;;;7.45;100.00;100638.38;5031296;28;20080;-73
2022/12/07 02:46:32;;;;;;;38.30;17.45;;;;;;;7.37;100.00;100635.41;5031767;28;20045;-73
2022/12/07 02:48:59;;;;;;;38.75;18.40;;;;;;;7.28;100.00;100625.56;5031205;28;20048;-73
2022/12/07 02:51:25;;;;;;;47.42;19.80;;;;;;;7.02;100.00;100588.22;5031251;28;20041;-73
2022/12/07 02:53:52;;;;;;;48.65;20.35;;;;;;;7.31;100.00;100635.09;5031183;28;20454;-73
2022/12/07 02:56:35;;;;;;;45.90;20.92;;;;;;;7.27;100.00;100630.63;5031144;28;20091;-72
2022/12/07 02:59:18;;;;;;;42.50;20.80;;;;;;;7.31;100.00;100629.97;5031304;28;20581;-73
2022/12/07 03:01:57;;;;;;;44.92;21.33;;;;;;;7.34;100.00;100627.56;5031192;28;20537;-73
2022/12/07 03:04:44;;;;;;;48.17;22.40;;;;;;;7.33;100.00;100627.47;5031260;28;20152;-73
2022/12/07 03:07:15;;;;;;;42.70;21.27;;;;;;;7.35;100.00;100621.63;5044877;28;20271;-73
2022/12/07 03:13:21;;;;;;;53.53;25.83;;;;;;;7.22;100.00;100594.41;5049366;22;20073;-73
2022/12/07 03:16:06;;;;;;;46.30;21.27;;;;;;;7.41;100.00;100626.19;4991212;28;20038;-73
2022/12/07 03:18:39;;;;;;;66.75;22.25;;;;;;;7.40;100.00;100627.00;4978053;28;20030;-73
2022/12/07 03:21:17;;;;;;;39.53;19.40;;;;;;;7.35;100.00;100637.03;4981756;28;20038;-73
2022/12/07 03:23:48;;;;;;;50.58;20.83;;;;;;;7.05;100.00;100593.53;4990537;28;20037;-74
2022/12/07 03:26:16;;;;;;;46.38;19.65;;;;;;;7.20;100.00;100621.72;4988007;28;20484;-74
2022/12/07 03:28:47;;;;;;;44.60;18.98;;;;;;;7.08;100.00;100603.09;4989327;28;20033;-74
2022/12/07 03:34:06;;;;;;;44.75;18.88;;;;;;;7.28;100.00;100635.81;5094441;23;20066;-73
2022/12/07 03:37:03;;;;;;;34.85;18.15;;;;;;;7.32;100.00;100638.56;4991105;28;20031;-73
2022/12/07 03:39:34;;;;;;;38.10;18.38;;;;;;;7.31;100.00;100632.53;4991060;28;20026;-73
2022/12/07 03:42:03;;;;;;;41.50;18.92;;;;;;;7.34;100.00;100627.56;4990466;28;20049;-73
2022/12/07 03:44:30;;;;;;;37.55;17.80;;;;;;;7.33;100.00;100624.91;4990902;28;20133;-73
2022/12/07 03:47:05;;;;;;;38.35;19.08;;;;;;;7.47;100.00;100634.22;4990886;28;20113;-73
2022/12/07 03:49:42;;;;;;;36.53;18.35;;;;;;;7.48;100.00;100630.84;4990463;28;20038;-73
2022/12/07 03:52:26;;;;;;;38.05;17.77;;;;;;;7.51;100.00;100623.28;4990581;28;20379;-73
2022/12/07 03:55:06;;;;;;;39.55;18.85;;;;;;;7.54;100.00;100638.88;4990322;28;20027;-73
2022/12/07 03:57:34;;;;;;;37.10;18.52;;;;;;;7.47;100.00;100636.78;4990583;28;20026;-73
2022/12/07 04:00:03;;;;;;;36.17;18.05;;;;;;;7.46;100.00;100632.44;4988408;28;20037;-73
2022/12/07 04:02:29;;;;;;;31.85;18.35;;;;;;;7.35;100.00;100613.94;4990550;28;20046;-73
2022/12/07 04:04:56;;;;;;;40.35;18.13;;;;;;;7.35;100.00;100621.63;4990230;28;20472;-73
2022/12/07 04:07:21;;;;;;;36.10;18.35;;;;;;;7.40;100.00;100620.19;4990299;28;20482;-73
2022/12/07 04:09:47;;;;;;;38.53;17.45;;;;;;;7.42;100.00;100622.81;4990064;28;20122;-73
2022/12/07 04:12:13;;;;;;;42.58;18.08;;;;;;;7.36;100.00;100623.38;4990284;28;20033;-73
2022/12/07 04:14:38;;;;;;;35.75;17.27;;;;;;;7.15;100.00;100617.13;4990844;28;20057;-72
2022/12/07 04:17:04;;;;;;;40.17;18.73;;;;;;;7.23;100.00;100614.16;4988651;28;20041;-73
2022/12/07 04:19:32;;;;;;;42.28;18.70;;;;;;;7.29;100.00;100614.47;4990084;28;20469;-73
2022/12/07 04:22:00;;;;;;;37.75;18.52;;;;;;;7.20;100.00;100608.88;4990001;28;20030;-73
2022/12/07 04:24:25;;;;;;;40.85;18.88;;;;;;;7.08;100.00;100609.09;4990047;28;20031;-73
2022/12/07 04:26:51;;;;;;;38.88;17.95;;;;;;;7.06;100.00;100595.28;4990681;28;20415;-74
2022/12/07 04:29:18;;;;;;;34.40;17.13;;;;;;;7.20;100.00;100615.69;4990033;28;20061;-73
2022/12/07 04:31:44;;;;;;;36.97;17.75;;;;;;;7.29;100.00;100611.03;4989986;28;20035;-73
2022/12/07 04:34:10;;;;;;;35.60;19.10;;;;;;;7.32;100.00;100613.75;4971823;28;20062;-73
2022/12/07 04:36:40;;;;;;;42.15;18.63;;;;;;;7.36;100.00;100620.81;4989774;28;20035;-74
2022/12/07 04:39:13;;;;;;;37.03;18.77;;;;;;;7.41;100.00;100613.34;4989727;28;20499;-73
2022/12/07 04:41:39;;;;;;;36.60;17.67;;;;;;;7.38;100.00;100613.22;4989802;28;20110;-73
2022/12/07 04:44:07;;;;;;;35.15;17.40;;;;;;;7.42;100.00;100630.53;4990043;28;20113;-72
2022/12/07 04:46:33;;;;;;;34.25;16.55;;;;;;;7.33;100.00;100627.47;4988815;28;20110;-73
2022/12/07 04:48:59;;;;;;;41.88;17.75;;;;;;;7.26;100.00;100629.75;4989898;28;20109;-73
2022/12/07 04:51:27;;;;;;;32.13;17.20;;;;;;;7.15;100.00;100615.41;4989984;28;20030;-73
2022/12/07 04:53:54;;;;;;;37.08;17.48;;;;;;;7.18;100.00;100640.38;4989112;28;20030;-73
2022/12/07 04:56:21;;;;;;;39.08;16.92;;;;;;;7.10;100.00;100630.59;5043846;28;20065;-73
2022/12/07 04:58:47;;;;;;;36.28;17.67;;;;;;;7.10;100.00;100627.13;5090292;28;20028;-73
2022/12/07 05:01:16;;;;;;;36.65;18.23;;;;;;;7.11;100.00;100634.03;5091456;28;20035;-73
2022/12/07 05:03:41;;;;;;;44.50;21.50;;;;;;;7.18;100.00;100631.00;5091753;28;20032;-73
2022/12/07 05:06:08;;;;;;;40.08;19.30;;;;;;;7.17;100.00;100625.81;5091510;28;20527;-73
2022/12/07 05:08:34;;;;;;;47.03;19.88;;;;;;;7.17;100.00;100629.25;5002800;28;20026;-74
2022/12/07 05:11:01;;;;;;;41.70;19.13;;;;;;;7.24;100.00;100626.19;4988938;28;20068;-73
2022/12/07 05:13:27;;;;;;;43.97;20.23;;;;;;;7.23;100.00;100615.84;4988963;28;20127;-73
2022/12/07 05:15:52;;;;;;;44.40;19.92;;;;;;;7.34;100.00;100630.13;4992678;28;20492;-78
2022/12/07 05:18:18;;;;;;;43.00;18.70;;;;;;;7.41;100.00;100628.75;4988759;28;20106;-76
2022/12/07 05:20:44;;;;;;;42.33;21.13;;;;;;;7.41;100.00;100621.97;5003522;28;20156;-74
2022/12/07 05:23:09;;;;;;;49.53;23.85;;;;;;;7.45;100.00;100621.31;5019067;28;20151;-75
2022/12/07 05:25:35;;;;;;;40.67;21.48;;;;;;;7.30;100.00;100584.53;5006197;28;20479;-74
2022/12/07 05:28:01;;;;;;;40.13;18.85;;;;;;;7.50;100.00;100624.13;4991665;28;20541;-74
2022/12/07 05:30:26;;;;;;;41.95;19.58;;;;;;;7.54;100.00;100625.13;4988034;28;20034;-73
2022/12/07 05:32:52;;;;;;;45.15;20.13;;;;;;;7.54;100.00;100623.47;4987593;28;20439;-74
2022/12/07 05:35:18;;;;;;;46.95;21.23;;;;;;;7.56;100.00;100615.81;4988138;28;20025;-73
2022/12/07 05:37:44;;;;;;;47.30;20.20;;;;;;;7.57;100.00;100620.16;4988024;28;20058;-74
2022/12/07 05:40:11;;;;;;;39.45;19.65;;;;;;;7.52;100.00;100631.91;4988523;28;20031;-74
2022/12/07 05:42:37;;;;;;;46.20;19.30;;;;;;;7.38;100.00;100641.47;4987231;28;20069;-74
2022/12/07 05:45:03;;;;;;;50.83;20.90;;;;;;;7.29;100.00;100636.72;4988563;28;20038;-73
2022/12/07 05:47:28;;;;;;;54.85;23.35;;;;;;;7.27;100.00;100626.34;4988449;28;20030;-73
2022/12/07 05:49:54;;;;;;;44.28;21.77;;;;;;;7.29;100.00;100636.72;4988525;28;20038;-73
2022/12/07 05:52:19;;;;;;;45.45;20.10;;;;;;;7.02;100.00;100593.38;4988635;28;20039;-73
2022/12/07 05:54:45;;;;;;;42.55;21.10;;;;;;;7.00;100.00;100592.38;4988667;28;20033;-73
2022/12/07 05:57:10;;;;;;;43.60;20.77;;;;;;;7.25;100.00;100635.66;4990075;28;20031;-73
2022/12/07 05:59:35;;;;;;;56.38;26.33;;;;;;;7.27;100.00;100628.03;5006849;28;20430;-73
2022/12/07 06:02:05;;;;;;;48.67;26.67;;;;;;;7.29;100.00;100631.59;4991644;28;20136;-73
2022/12/07 06:04:32;;;;;;;47.13;23.27;;;;;;;7.25;100.00;100633.09;4988928;28;20761;-73
2022/12/07 06:06:58;;;;;;;46.95;21.77;;;;;;;7.27;100.00;100636.63;4989224;28;20077;-73
2022/12/07 06:09:25;;;;;;;44.20;22.00;;;;;;;7.09;100.00;100592.00;4989202;28;20039;-73
2022/12/07 06:14:35;;;;;;;43.97;20.73;;;;;;;7.24;100.00;100633.91;4989262;28;20064;-73
2022/12/07 06:17:00;;;;;;;56.63;22.33;;;;;;;7.23;100.00;100626.13;4989236;28;20070;-73
2022/12/07 06:19:26;;;;;;;47.05;21.02;;;;;;;7.18;100.00;100600.19;4989102;28;20061;-73
2022/12/07 06:21:52;;;;;;;43.45;21.38;;;;;;;7.39;100.00;100633.81;4989102;28;20041;-73
2022/12/07 06:24:18;;;;;;;44.08;22.23;;;;;;;7.44;100.00;100621.22;4988918;28;20045;-73
2022/12/07 06:26:44;;;;;;;44.72;22.20;;;;;;;7.46;100.00;100624.75;4988853;28;20408;-73
2022/12/07 06:29:11;;;;;;;43.00;20.70;;;;;;;7.52;100.00;100627.63;4989133;28;20074;-73
2022/12/07 06:31:37;;;;;;;44.90;21.33;;;;;;;7.53;100.00;100618.25;4988993;28;20031;-73
2022/12/07 06:34:05;;;;;;;47.80;22.98;;;;;;;7.60;100.00;100620.31;4988470;28;20149;-74
2022/12/07 06:36:30;;;;;;;49.20;22.05;;;;;;;7.60;100.00;100618.66;4988589;28;20126;-74
2022/12/07 06:38:57;;;;;;;47.20;21.38;;;;;;;7.59;100.00;100622.00;4989068;28;20113;-73
2022/12/07 06:41:23;;;;;;;52.03;23.77;;;;;;;7.55;100.00;100634.63;4989204;28;20043;-73
2022/12/07 06:43:48;;;;;;;53.78;24.48;;;;;;;7.47;100.00;100633.34;4991371;28;20022;-73
2022/12/07 06:46:15;;;;;;;53.83;25.48;;;;;;;7.51;100.00;100643.84;4991390;28;20042;-73
2022/12/07 06:48:41;;;;;;;48.80;23.23;;;;;;;7.50;100.00;100634.41;4991427;28;20035;-74
2022/12/07 06:51:06;;;;;;;51.28;23.45;;;;;;;7.63;100.00;100643.59;4991308;28;20034;-74
2022/12/07 06:53:32;;;;;;;50.47;23.25;;;;;;;7.72;100.00;100640.63;4991251;28;20027;-74
2022/12/07 06:55:57;;;;;;;51.33;25.33;;;;;;;7.74;100.00;100637.31;4991100;28;20027;-73
2022/12/07 06:58:23;;;;;;;54.08;24.95;;;;;;;7.71;100.00;100615.72;4991102;28;20400;-73
2022/12/07 07:00:51;;;;;;;54.95;25.45;;;;;;;7.85;100.00;100637.88;4991065;28;20037;-73
2022/12/07 07:03:17;;;;;;;52.65;24.77;;;;;;;7.76;100.00;100604.88;4990777;28;20576;-73
2022/12/07 07:05:43;;;;;;;50.17;24.23;;;;;;;8.08;100.00;100644.16;4991097;28;20050;-73
2022/12/07 07:08:09;;;;;;;46.28;25.08;;;;;;;8.10;100.00;100645.13;4990591;28;20393;-73
2022/12/07 07:10:35;;;;;;;53.25;25.45;;;;;;;7.97;100.00;100609.31;4990780;28;20031;-73
2022/12/07 07:13:01;;;;;;;42.80;22.92;;;;;;;8.23;100.00;100651.75;4990891;28;20061;-73
2022/12/07 07:15:26;;;;;;;43.90;24.58;;;;;;;8.24;100.00;100644.94;4990663;28;20058;-73
2022/12/07 07:17:52;;;;;;;52.05;24.80;;;;;;;8.19;100.00;100642.13;4991090;28;20058;-73
2022/12/07 07:20:18;;;;;;;45.17;24.77;;;;;;;8.28;100.00;100653.69;4990960;28;20357;-73
2022/12/07 07:22:44;;;;;;;45.58;23.08;;;;;;;8.26;100.00;100646.78;4990783;28;20022;-73
2022/12/07 07:25:09;;;;;;;46.78;22.70;;;;;;;8.22;100.00;100646.53;4990400;28;20037;-73
2022/12/07 07:27:35;;;;;;;46.50;24.38;;;;;;;8.21;100.00;100645.66;4990153;28;20034;-73
2022/12/07 07:30:00;;;;;;;49.05;22.50;;;;;;;8.21;100.00;100645.66;4990591;28;20051;-73
2022/12/07 07:32:26;;;;;;;49.55;24.52;;;;;;;7.90;100.00;100610.72;4990287;28;20089;-73
2022/12/07 07:34:51;;;;;;;51.05;24.13;;;;;;;7.78;100.00;100602.41;4990339;28;20101;-73
2022/12/07 07:37:16;;;;;;;51.72;25.00;;;;;;;8.00;100.00;100648.06;4990639;28;20472;-73
2022/12/07 07:39:42;;;;;;;50.08;25.33;;;;;;;7.82;100.00;100613.72;4990529;28;20155;-73
2022/12/07 07:42:07;;;;;;;44.22;26.30;;;;;;;8.03;100.00;100644.75;4990517;28;20092;-73
2022/12/07 07:44:34;;;;;;;46.47;26.15;;;;;;;7.93;100.00;100631.41;4990583;28;20038;-73
2022/12/07 07:46:59;;;;;;;50.60;27.20;;;;;;;7.99;100.00;100654.00;4990459;28;20034;-73
2022/12/07 07:49:25;;;;;;;54.25;29.42;;;;;;;8.10;100.00;100652.84;4990424;28;20046;-73
2022/12/07 07:51:51;;;;;;;48.42;25.67;;;;;;;8.24;100.00;100655.22;4990301;28;20019;-73
2022/12/07 07:54:16;;;;;;;49.72;27.23;;;;;;;8.26;100.00;100658.72;4989163;28;20033;-73
2022/12/07 07:56:42;;;;;;;53.92;27.95;;;;;;;8.29;100.00;100653.75;4989955;28;20506;-73
2022/12/07 07:59:08;;;;;;;51.75;26.77;;;;;;;8.31;100.00;100647.00;4990035;28;20033;-73
2022/12/07 08:01:34;;;;;;;50.90;26.48;;;;;;;8.30;100.00;100650.38;4989799;28;20030;-73
2022/12/07 08:03:59;;;;;;;50.28;26.20;;;;;;;8.34;100.00;100652.28;4990222;28;20110;-73
2022/12/07 08:06:25;;;;;;;53.45;26.60;;;;;;;8.14;100.00;100611.84;4988844;28;20035;-73
2022/12/07 08:08:50;;;;;;;47.92;25.40;;;;;;;8.37;100.00;100662.75;4989926;28;20097;-73
2022/12/07 08:11:16;;;;;;;48.67;26.30;;;;;;;8.37;100.00;100643.84;4989840;28;20038;-73
2022/12/07 08:13:41;;;;;;;51.35;26.50;;;;;;;8.39;100.00;100653.38;4989683;28;20026;-73
2022/12/07 08:16:10;;;;;;;46.13;24.85;;;;;;;8.43;100.00;100647.56;4989731;28;20029;-73
2022/12/07 08:18:36;;;;;;;44.85;25.02;;;;;;;8.50;100.00;100659.09;4989642;28;20032;-73
2022/12/07 08:21:03;;;;;;;51.10;26.23;;;;;;;8.51;100.00;100660.88;4988332;28;20022;-73
2022/12/07 08:23:29;;;;;;;48.58;25.83;;;;;;;8.37;100.00;100625.81;5055819;28;20049;-73
2022/12/07 08:25:55;;;;;;;52.78;25.85;;;;;;;8.61;100.00;100656.16;4989720;28;20031;-73
2022/12/07 08:28:20;;;;;;;47.33;24.20;;;;;;;8.62;100.00;100647.63;4989488;28;20385;-73
2022/12/07 08:30:46;;;;;;;49.00;25.02;;;;;;;8.57;100.00;100639.69;4989799;28;20030;-73
2022/12/07 08:33:11;;;;;;;44.63;24.25;;;;;;;8.64;100.00;100643.44;4989128;28;20131;-73
2022/12/07 08:35:37;;;;;;;43.20;24.05;;;;;;;8.61;100.00;100645.84;4989823;28;20031;-73
2022/12/07 08:38:03;;;;;;;46.03;23.85;;;;;;;8.65;100.00;100637.47;4989471;28;20450;-73
2022/12/07 08:40:35;;;;;;;45.78;24.20;;;;;;;8.77;100.00;100638.03;5067144;28;20406;-74
2022/12/07 08:43:00;;;;;;;42.88;23.60;;;;;;;8.81;100.00;100641.66;5068159;28;20037;-74
2022/12/07 08:45:27;;;;;;;43.53;24.30;;;;;;;8.92;100.00;100643.03;5067654;28;20104;-74
2022/12/07 08:48:06;;;;;;;43.20;24.00;;;;;;;8.80;100.00;100602.16;5068312;28;20509;-74
2022/12/07 08:50:33;;;;;;;44.13;23.50;;;;;;;9.09;100.00;100628.34;5067964;28;20028;-74
2022/12/07 08:52:59;;;;;;;40.55;23.02;;;;;;;8.95;100.00;100590.78;5068037;28;20037;-74
2022/12/07 08:55:27;;;;;;;47.70;23.88;;;;;;;9.18;100.00;100631.38;5068160;28;20494;-74
2022/12/07 08:57:52;;;;;;;43.17;24.05;;;;;;;9.15;100.00;100631.22;5082411;28;20036;-74
2022/12/07 09:00:18;;;;;;;42.97;23.25;;;;;;;9.23;100.00;100623.81;5067917;28;20482;-74
2022/12/07 09:02:45;;;;;;;43.40;22.70;;;;;;;9.23;100.00;100604.13;5067515;28;20041;-74
2022/12/07 09:05:11;;;;;;;42.88;21.20;;;;;;;9.34;100.00;100616.56;5066410;28;20032;-74
2022/12/07 09:07:37;;;;;;;39.38;21.58;;;;;;;9.34;100.00;100619.16;5067808;28;20033;-74
2022/12/07 09:10:04;;;;;;;50.50;26.75;;;;;;;9.37;100.00;100616.69;5067663;28;20021;-74
2022/12/07 09:12:29;;;;;;;49.60;25.35;;;;;;;9.50;100.00;100618.13;5067465;28;20024;-74
2022/12/07 09:14:55;;;;;;;46.60;23.85;;;;;;;9.31;100.00;100570.94;5067465;28;20031;-75
2022/12/07 09:17:21;;;;;;;42.50;21.52;;;;;;;9.57;100.00;100607.28;5067127;28;20028;-74
2022/12/07 09:19:46;;;;;;;42.95;22.17;;;;;;;9.63;100.00;100614.38;5067393;28;20051;-74
2022/12/07 09:22:11;;;;;;;45.30;22.48;;;;;;;9.61;100.00;100592.81;5067446;28;20029;-75
2022/12/07 09:24:37;;;;;;;43.33;22.05;;;;;;;9.69;100.00;100599.19;5067368;28;20036;-74
2022/12/07 09:27:02;;;;;;;40.97;20.80;;;;;;;9.65;100.00;100595.59;5067317;28;20021;-74
2022/12/07 09:29:28;;;;;;;40.55;21.50;;;;;;;9.72;100.00;100596.75;5057628;28;20075;-74
2022/12/07 09:31:53;;;;;;;43.15;20.05;;;;;;;9.76;100.00;100595.16;5046077;28;20152;-74
2022/12/07 09:34:21;;;;;;;36.17;20.52;;;;;;;9.75;100.00;100589.13;5047190;28;20025;-74
2022/12/07 09:36:46;;;;;;;38.60;21.45;;;;;;;9.74;100.00;100587.38;5047188;28;20033;-74
2022/12/07 09:39:12;;;;;;;38.78;21.70;;;;;;;9.67;100.00;100580.19;5045313;28;20058;-74
2022/12/07 09:41:42;;;;;;;40.13;21.63;;;;;;;9.64;100.00;100580.06;5047263;28;20100;-74
2022/12/07 09:44:23;;;;;;;37.22;22.08;;;;;;;9.71;100.00;100567.50;5047213;28;20496;-74
2022/12/07 09:46:50;;;;;;;38.85;22.52;;;;;;;9.84;100.00;100578.31;5047012;28;20063;-73
2022/12/07 09:49:22;;;;;;;37.85;21.10;;;;;;;9.92;100.00;100579.53;5047150;28;20021;-74
2022/12/07 09:51:59;;;;;;;39.58;19.88;;;;;;;9.94;100.00;100569.28;5048482;28;20519;-74
2022/12/07 09:54:24;;;;;;;42.72;21.58;;;;;;;9.98;100.00;100569.47;5030951;28;20073;-74
2022/12/07 09:56:50;;;;;;;37.17;22.05;;;;;;;10.07;100.00;100561.22;5031643;28;20476;-74
2022/12/07 09:59:18;;;;;;;45.75;23.92;;;;;;;9.99;100.00;100555.75;5032781;28;20125;-74
2022/12/07 10:01:45;;;;;;;45.25;25.10;;;;;;;10.12;100.00;100563.97;5047666;28;20037;-74
2022/12/07 10:04:16;;;;;;;39.03;22.77;;;;;;;10.10;100.00;100553.59;5063969;28;20103;-73
2022/12/07 10:06:42;;;;;;;44.00;24.40;;;;;;;10.02;100.00;100544.69;5033571;28;20033;-73
2022/12/07 10:09:12;;;;;;;50.92;28.65;;;;;;;10.01;100.00;100555.81;5033201;28;20030;-73
2022/12/07 10:11:58;;;;;;;53.95;30.92;;;;;;;9.95;100.00;100551.28;5033272;28;20033;-74
2022/12/07 10:14:23;;;;;;;48.30;28.77;;;;;;;9.70;100.00;100518.47;5033030;28;20061;-74
2022/12/07 10:16:49;;;;;;;48.90;27.52;;;;;;;9.82;100.00;100557.63;5033223;28;20105;-74
2022/12/07 10:19:20;;;;;;;48.22;28.15;;;;;;;9.65;100.00;100545.75;5032759;28;20025;-74
2022/12/07 10:22:04;;;;;;;47.00;29.48;;;;;;;9.69;100.00;100542.47;5033497;28;20037;-73
2022/12/07 10:24:30;;;;;;;52.35;29.25;;;;;;;9.70;100.00;100544.25;5033135;28;20479;-73
2022/12/07 10:26:56;;;;;;;53.15;30.27;;;;;;;9.76;100.00;100548.75;5033026;28;20029;-73
2022/12/07 10:29:31;;;;;;;51.28;29.17;;;;;;;9.76;100.00;100549.66;5032867;28;20025;-74
2022/12/07 10:32:33;;;;;;;48.42;29.50;;;;;;;9.80;100.00;100541.22;5032970;28;20033;-73
2022/12/07 10:35:21;;;;;;;50.38;29.90;;;;;;;9.69;100.00;100534.72;5033132;28;20037;-73
2022/12/07 10:37:47;;;;;;;50.65;29.58;;;;;;;9.74;100.00;100538.38;5032633;28;20170;-74
2022/12/07 10:40:33;;;;;;;53.20;28.70;;;;;;;9.70;100.00;100533.94;5032566;28;20136;-73
2022/12/07 10:43:14;;;;;;;50.95;29.65;;;;;;;9.44;100.00;100499.34;5032381;28;20495;-74
2022/12/07 10:46:18;;;;;;;50.95;29.42;;;;;;;9.77;100.00;100537.63;5031808;28;20506;-73
2022/12/07 10:49:05;;;;;;;50.67;30.05;;;;;;;9.79;100.00;100529.13;5048406;28;20504;-74
2022/12/07 10:52:00;;;;;;;45.95;30.00;;;;;;;9.84;100.00;100519.91;5049523;28;20040;-74
2022/12/07 10:54:56;;;;;;;50.00;29.90;;;;;;;9.85;100.00;100524.22;5049360;28;20411;-73
2022/12/07 10:57:56;;;;;;;51.75;29.70;;;;;;;9.76;100.00;100521.28;4970205;28;20041;-74
2022/12/07 11:00:24;;;;;;;51.38;29.88;;;;;;;9.75;100.00;100516.94;4894133;29;20036;-74
2022/12/07 11:02:50;;;;;;;52.25;30.38;;;;;;;9.69;100.00;100520.16;4893219;29;20049;-74
2022/12/07 11:05:30;;;;;;;50.67;29.17;;;;;;;9.69;100.00;100516.69;4894053;29;20036;-74
2022/12/07 11:07:55;;;;;;;49.60;30.45;;;;;;;9.70;100.00;100521.03;4894094;29;20041;-73
2022/12/07 11:10:21;;;;;;;49.20;30.52;;;;;;;9.76;100.00;100512.66;4894225;29;20129;-74
2022/12/07 11:13:15;;;;;;;49.55;30.20;;;;;;;9.80;100.00;100502.53;4894631;29;20171;-74
2022/12/07 11:16:08;;;;;;;46.67;29.20;;;;;;;9.83;100.00;100502.69;4894373;29;20052;-74
2022/12/07 11:18:42;;;;;;;46.45;27.58;;;;;;;9.96;100.00;100495.44;4893689;29;20053;-75
2022/12/07 11:21:14;;;;;;;44.20;27.45;;;;;;;9.87;100.00;100455.56;4894645;29;20051;-73
2022/12/07 11:23:51;;;;;;;45.20;27.35;;;;;;;10.11;100.00;100482.25;4894270;29;20223;-74
2022/12/07 11:26:51;;;;;;;49.55;28.25;;;;;;;10.13;100.00;100473.75;4894165;29;20127;-73
2022/12/07 11:29:37;;;;;;;45.83;27.63;;;;;;;10.17;100.00;100473.06;4894287;29;20115;-72
2022/12/07 11:32:25;;;;;;;46.15;27.65;;;;;;;10.22;100.00;100472.34;4894123;29;20041;-74